sensor_id;sensor_type;location;lat;lon;timestamp;P1;durP1;ratioP1;P2;durP2;ratioP2
59681;SDS011;45548;39.530;-9.118;2022-07-05T10:47:15;21.02;;;7.88;;
59681;SDS011;45548;39.530;-9.118;2022-07-05T10:49:43;21.75;;;8.00;;
59681;SDS011;45548;39.530;-9.118;2022-07-05T10:52:22;18.38;;;7.55;;
59681;SDS011;45548;39.530;-9.118;2022-07-05T10:57:42;16.30;;;7.55;;
59681;SDS011;45548;39.530;-9.118;2022-07-05T11:00:08;20.48;;;7.88;;
59681;SDS011;45548;39.530;-9.118;2022-07-05T11:02:35;18.15;;;8.30;;
59681;SDS011;45548;39.530;-9.118;2022-07-05T11:05:02;12.93;;;6.72;;
59681;SDS011;45548;39.530;-9.118;2022-07-05T11:10:24;20.88;;;9.10;;
59681;SDS011;45548;39.530;-9.118;2022-07-05T11:12:50;26.00;;;9.98;;
59681;SDS011;45548;39.530;-9.118;2022-07-05T11:15:16;29.20;;;10.50;;
59681;SDS011;45548;39.530;-9.118;2022-07-05T11:17:42;30.70;;;10.63;;
59681;SDS011;45548;39.530;-9.118;2022-07-05T11:22:42;15.75;;;8.15;;
59681;SDS011;45548;39.530;-9.118;2022-07-05T11:25:37;23.92;;;9.35;;
59681;SDS011;45548;39.530;-9.118;2022-07-05T11:28:06;25.92;;;11.15;;
59681;SDS011;45548;39.530;-9.118;2022-07-05T11:33:28;22.15;;;8.85;;
59681;SDS011;45548;39.530;-9.118;2022-07-05T11:35:55;22.90;;;9.05;;
59681;SDS011;45548;39.530;-9.118;2022-07-05T11:38:22;18.40;;;8.18;;
59681;SDS011;45548;39.530;-9.118;2022-07-05T11:40:48;20.50;;;9.25;;
59681;SDS011;45548;39.530;-9.118;2022-07-05T11:43:13;20.40;;;8.45;;
59681;SDS011;45548;39.530;-9.118;2022-07-05T11:45:39;22.67;;;9.27;;
59681;SDS011;45548;39.530;-9.118;2022-07-05T11:48:05;24.67;;;10.65;;
59681;SDS011;45548;39.530;-9.118;2022-07-05T11:50:39;25.40;;;9.65;;
59681;SDS011;45548;39.530;-9.118;2022-07-05T11:53:05;25.23;;;10.07;;
59681;SDS011;45548;39.530;-9.118;2022-07-05T11:55:30;23.65;;;9.70;;
59681;SDS011;45548;39.530;-9.118;2022-07-05T11:57:56;28.42;;;11.23;;
59681;SDS011;45548;39.530;-9.118;2022-07-05T12:00:33;24.20;;;10.35;;
59681;SDS011;45548;39.530;-9.118;2022-07-05T12:03:12;32.45;;;10.60;;
59681;SDS011;45548;39.530;-9.118;2022-07-05T12:05:39;32.38;;;12.18;;
59681;SDS011;45548;39.530;-9.118;2022-07-05T12:08:08;41.03;;;12.98;;
59681;SDS011;45548;39.530;-9.118;2022-07-05T12:10:34;30.45;;;10.55;;
59681;SDS011;45548;39.530;-9.118;2022-07-05T12:13:19;33.63;;;9.50;;
59681;SDS011;45548;39.530;-9.118;2022-07-05T12:15:44;33.72;;;11.50;;
59681;SDS011;45548;39.530;-9.118;2022-07-05T12:18:11;27.95;;;9.90;;
59681;SDS011;45548;39.530;-9.118;2022-07-05T12:20:38;23.52;;;8.95;;
59681;SDS011;45548;39.530;-9.118;2022-07-05T12:23:05;22.08;;;8.43;;
59681;SDS011;45548;39.530;-9.118;2022-07-05T12:25:31;20.33;;;8.85;;
59681;SDS011;45548;39.530;-9.118;2022-07-05T12:27:58;27.20;;;10.18;;
59681;SDS011;45548;39.530;-9.118;2022-07-05T12:30:27;23.90;;;9.65;;
59681;SDS011;45548;39.530;-9.118;2022-07-05T12:32:57;23.15;;;10.23;;
59681;SDS011;45548;39.530;-9.118;2022-07-05T12:35:28;28.77;;;10.93;;
59681;SDS011;45548;39.530;-9.118;2022-07-05T12:37:55;22.48;;;9.98;;
59681;SDS011;45548;39.530;-9.118;2022-07-05T12:40:21;18.52;;;10.20;;
59681;SDS011;45548;39.530;-9.118;2022-07-05T12:42:59;25.90;;;10.70;;
59681;SDS011;45548;39.530;-9.118;2022-07-05T12:45:29;23.05;;;10.70;;
59681;SDS011;45548;39.530;-9.118;2022-07-05T12:47:55;30.05;;;11.20;;
59681;SDS011;45548;39.530;-9.118;2022-07-05T12:50:23;28.52;;;13.02;;
59681;SDS011;45548;39.530;-9.118;2022-07-05T12:52:56;24.55;;;10.63;;
59681;SDS011;45548;39.530;-9.118;2022-07-05T12:55:33;32.70;;;13.32;;
59681;SDS011;45548;39.530;-9.118;2022-07-05T12:58:18;26.20;;;10.52;;
59681;SDS011;45548;39.530;-9.118;2022-07-05T13:00:44;28.65;;;16.48;;
59681;SDS011;45548;39.530;-9.118;2022-07-05T13:03:10;24.88;;;11.90;;
59681;SDS011;45548;39.530;-9.118;2022-07-05T13:05:36;25.27;;;10.00;;
59681;SDS011;45548;39.530;-9.118;2022-07-05T13:08:02;26.52;;;10.65;;
59681;SDS011;45548;39.530;-9.118;2022-07-05T13:10:28;22.42;;;11.75;;
59681;SDS011;45548;39.530;-9.118;2022-07-05T13:12:56;21.40;;;9.38;;
59681;SDS011;45548;39.530;-9.118;2022-07-05T13:15:23;21.83;;;9.15;;
59681;SDS011;45548;39.530;-9.118;2022-07-05T13:17:48;20.73;;;7.70;;
59681;SDS011;45548;39.530;-9.118;2022-07-05T13:20:15;23.38;;;9.90;;
59681;SDS011;45548;39.530;-9.118;2022-07-05T13:22:45;24.92;;;10.10;;
59681;SDS011;45548;39.530;-9.118;2022-07-05T13:25:11;23.42;;;8.77;;
59681;SDS011;45548;39.530;-9.118;2022-07-05T13:27:38;21.15;;;7.68;;
59681;SDS011;45548;39.530;-9.118;2022-07-05T13:30:04;22.52;;;8.38;;
59681;SDS011;45548;39.530;-9.118;2022-07-05T13:32:30;23.20;;;9.20;;
59681;SDS011;45548;39.530;-9.118;2022-07-05T13:34:56;21.48;;;7.13;;
59681;SDS011;45548;39.530;-9.118;2022-07-05T13:37:22;21.77;;;6.88;;
59681;SDS011;45548;39.530;-9.118;2022-07-05T13:39:48;21.55;;;7.55;;
59681;SDS011;45548;39.530;-9.118;2022-07-05T13:42:13;21.20;;;7.45;;
59681;SDS011;45548;39.530;-9.118;2022-07-05T13:44:39;25.67;;;8.02;;
59681;SDS011;45548;39.530;-9.118;2022-07-05T13:47:04;25.08;;;9.50;;
59681;SDS011;45548;39.530;-9.118;2022-07-05T13:49:30;22.73;;;7.82;;
59681;SDS011;45548;39.530;-9.118;2022-07-05T13:51:56;21.75;;;8.55;;
59681;SDS011;45548;39.530;-9.118;2022-07-05T13:54:23;21.80;;;8.10;;
59681;SDS011;45548;39.530;-9.118;2022-07-05T13:56:48;24.75;;;8.10;;
59681;SDS011;45548;39.530;-9.118;2022-07-05T13:59:14;19.85;;;7.00;;
59681;SDS011;45548;39.530;-9.118;2022-07-05T14:01:40;24.00;;;9.23;;
59681;SDS011;45548;39.530;-9.118;2022-07-05T14:04:05;21.15;;;7.80;;
59681;SDS011;45548;39.530;-9.118;2022-07-05T14:06:31;18.63;;;7.25;;
59681;SDS011;45548;39.530;-9.118;2022-07-05T14:08:58;18.17;;;6.15;;
59681;SDS011;45548;39.530;-9.118;2022-07-05T14:11:24;22.33;;;6.97;;
59681;SDS011;45548;39.530;-9.118;2022-07-05T14:13:51;23.85;;;9.50;;
59681;SDS011;45548;39.530;-9.118;2022-07-05T14:16:18;16.75;;;8.48;;
59681;SDS011;45548;39.530;-9.118;2022-07-05T14:18:43;16.42;;;6.20;;
59681;SDS011;45548;39.530;-9.118;2022-07-05T14:21:09;20.35;;;7.53;;
59681;SDS011;45548;39.530;-9.118;2022-07-05T14:23:40;21.40;;;7.38;;
59681;SDS011;45548;39.530;-9.118;2022-07-05T14:26:14;22.55;;;7.53;;
59681;SDS011;45548;39.530;-9.118;2022-07-05T14:28:41;18.58;;;6.43;;
59681;SDS011;45548;39.530;-9.118;2022-07-05T14:31:06;17.90;;;7.53;;
59681;SDS011;45548;39.530;-9.118;2022-07-05T14:33:32;20.20;;;6.85;;
59681;SDS011;45548;39.530;-9.118;2022-07-05T14:35:57;19.35;;;7.15;;
59681;SDS011;45548;39.530;-9.118;2022-07-05T14:38:23;17.95;;;7.25;;
59681;SDS011;45548;39.530;-9.118;2022-07-05T14:40:49;15.95;;;6.25;;
59681;SDS011;45548;39.530;-9.118;2022-07-05T14:43:14;19.05;;;6.18;;
59681;SDS011;45548;39.530;-9.118;2022-07-05T14:45:40;20.50;;;6.50;;
59681;SDS011;45548;39.530;-9.118;2022-07-05T14:48:05;15.10;;;6.00;;
59681;SDS011;45548;39.530;-9.118;2022-07-05T14:50:31;19.63;;;7.15;;
59681;SDS011;45548;39.530;-9.118;2022-07-05T14:52:57;18.45;;;7.50;;
59681;SDS011;45548;39.530;-9.118;2022-07-05T14:55:22;20.05;;;7.60;;
59681;SDS011;45548;39.530;-9.118;2022-07-05T15:00:43;18.35;;;6.93;;
59681;SDS011;45548;39.530;-9.118;2022-07-05T15:03:08;15.32;;;6.10;;
59681;SDS011;45548;39.530;-9.118;2022-07-05T15:05:37;19.75;;;7.15;;
59681;SDS011;45548;39.530;-9.118;2022-07-05T15:08:08;19.58;;;7.15;;
59681;SDS011;45548;39.530;-9.118;2022-07-05T15:10:33;19.35;;;6.13;;
59681;SDS011;45548;39.530;-9.118;2022-07-05T15:12:59;16.77;;;7.60;;
59681;SDS011;45548;39.530;-9.118;2022-07-05T15:15:29;17.95;;;7.22;;
59681;SDS011;45548;39.530;-9.118;2022-07-05T15:17:55;14.55;;;6.68;;
59681;SDS011;45548;39.530;-9.118;2022-07-05T15:20:24;19.92;;;7.22;;
59681;SDS011;45548;39.530;-9.118;2022-07-05T15:22:50;22.15;;;7.05;;
59681;SDS011;45548;39.530;-9.118;2022-07-05T15:25:18;14.45;;;4.85;;
59681;SDS011;45548;39.530;-9.118;2022-07-05T15:27:44;18.80;;;7.10;;
59681;SDS011;45548;39.530;-9.118;2022-07-05T15:30:11;16.42;;;6.03;;
59681;SDS011;45548;39.530;-9.118;2022-07-05T15:32:37;22.58;;;7.22;;
59681;SDS011;45548;39.530;-9.118;2022-07-05T15:35:03;18.40;;;7.90;;
59681;SDS011;45548;39.530;-9.118;2022-07-05T15:37:33;16.42;;;4.95;;
59681;SDS011;45548;39.530;-9.118;2022-07-05T15:39:58;14.45;;;5.03;;
59681;SDS011;45548;39.530;-9.118;2022-07-05T15:42:25;14.93;;;4.72;;
59681;SDS011;45548;39.530;-9.118;2022-07-05T15:44:50;19.65;;;5.95;;
59681;SDS011;45548;39.530;-9.118;2022-07-05T15:47:18;21.33;;;6.43;;
59681;SDS011;45548;39.530;-9.118;2022-07-05T15:49:44;17.60;;;5.95;;
59681;SDS011;45548;39.530;-9.118;2022-07-05T15:52:09;19.00;;;7.10;;
59681;SDS011;45548;39.530;-9.118;2022-07-05T15:54:37;24.05;;;7.70;;
59681;SDS011;45548;39.530;-9.118;2022-07-05T15:57:03;18.20;;;6.18;;
59681;SDS011;45548;39.530;-9.118;2022-07-05T15:59:31;19.05;;;6.03;;
59681;SDS011;45548;39.530;-9.118;2022-07-05T16:01:57;19.13;;;6.72;;
59681;SDS011;45548;39.530;-9.118;2022-07-05T16:04:22;19.60;;;6.63;;
59681;SDS011;45548;39.530;-9.118;2022-07-05T16:06:54;22.73;;;7.43;;
59681;SDS011;45548;39.530;-9.118;2022-07-05T16:09:23;17.50;;;5.97;;
59681;SDS011;45548;39.530;-9.118;2022-07-05T16:11:49;20.92;;;7.40;;
59681;SDS011;45548;39.530;-9.118;2022-07-05T16:14:17;20.90;;;7.55;;
59681;SDS011;45548;39.530;-9.118;2022-07-05T16:19:11;24.13;;;6.60;;
59681;SDS011;45548;39.530;-9.118;2022-07-05T16:21:37;22.73;;;7.38;;
59681;SDS011;45548;39.530;-9.118;2022-07-05T16:24:02;18.35;;;6.30;;
59681;SDS011;45548;39.530;-9.118;2022-07-05T16:26:28;24.45;;;7.20;;
59681;SDS011;45548;39.530;-9.118;2022-07-05T16:28:54;20.67;;;7.03;;
59681;SDS011;45548;39.530;-9.118;2022-07-05T16:31:19;19.35;;;6.43;;
59681;SDS011;45548;39.530;-9.118;2022-07-05T16:33:46;22.48;;;7.22;;
59681;SDS011;45548;39.530;-9.118;2022-07-05T16:36:14;22.88;;;7.50;;
59681;SDS011;45548;39.530;-9.118;2022-07-05T16:38:44;26.17;;;8.47;;
59681;SDS011;45548;39.530;-9.118;2022-07-05T16:41:10;15.70;;;6.50;;
59681;SDS011;45548;39.530;-9.118;2022-07-05T16:43:40;16.70;;;6.35;;
59681;SDS011;45548;39.530;-9.118;2022-07-05T16:46:09;16.40;;;5.97;;
59681;SDS011;45548;39.530;-9.118;2022-07-05T16:48:36;18.38;;;6.78;;
59681;SDS011;45548;39.530;-9.118;2022-07-05T16:51:03;16.95;;;6.70;;
59681;SDS011;45548;39.530;-9.118;2022-07-05T16:53:33;17.48;;;6.53;;
59681;SDS011;45548;39.530;-9.118;2022-07-05T16:56:06;18.25;;;5.72;;
59681;SDS011;45548;39.530;-9.118;2022-07-05T16:58:35;17.30;;;6.87;;
59681;SDS011;45548;39.530;-9.118;2022-07-05T17:03:34;18.48;;;6.10;;
59681;SDS011;45548;39.530;-9.118;2022-07-05T17:06:03;15.57;;;6.50;;
59681;SDS011;45548;39.530;-9.118;2022-07-05T17:08:30;17.95;;;6.03;;
59681;SDS011;45548;39.530;-9.118;2022-07-05T17:10:56;14.18;;;6.05;;
59681;SDS011;45548;39.530;-9.118;2022-07-05T17:13:21;17.25;;;6.68;;
59681;SDS011;45548;39.530;-9.118;2022-07-05T17:15:47;16.58;;;6.25;;
59681;SDS011;45548;39.530;-9.118;2022-07-05T17:18:12;14.68;;;7.45;;
59681;SDS011;45548;39.530;-9.118;2022-07-05T17:20:38;15.77;;;6.38;;
59681;SDS011;45548;39.530;-9.118;2022-07-05T17:23:03;15.15;;;6.05;;
59681;SDS011;45548;39.530;-9.118;2022-07-05T17:25:29;19.02;;;7.70;;
59681;SDS011;45548;39.530;-9.118;2022-07-05T17:27:55;18.42;;;7.18;;
59681;SDS011;45548;39.530;-9.118;2022-07-05T17:30:20;16.40;;;6.70;;
59681;SDS011;45548;39.530;-9.118;2022-07-05T17:32:46;20.60;;;7.20;;
59681;SDS011;45548;39.530;-9.118;2022-07-05T17:35:12;15.48;;;6.47;;
59681;SDS011;45548;39.530;-9.118;2022-07-05T17:37:39;20.15;;;7.85;;
59681;SDS011;45548;39.530;-9.118;2022-07-05T17:40:06;16.58;;;6.78;;
59681;SDS011;45548;39.530;-9.118;2022-07-05T17:42:33;15.13;;;6.50;;
59681;SDS011;45548;39.530;-9.118;2022-07-05T17:45:00;15.48;;;6.85;;
59681;SDS011;45548;39.530;-9.118;2022-07-05T17:47:28;19.17;;;6.47;;
59681;SDS011;45548;39.530;-9.118;2022-07-05T17:49:54;17.50;;;6.68;;
59681;SDS011;45548;39.530;-9.118;2022-07-05T17:52:19;14.27;;;5.95;;
59681;SDS011;45548;39.530;-9.118;2022-07-05T17:54:45;13.77;;;5.57;;
59681;SDS011;45548;39.530;-9.118;2022-07-05T17:59:42;20.10;;;7.07;;
59681;SDS011;45548;39.530;-9.118;2022-07-05T18:02:08;13.35;;;5.93;;
59681;SDS011;45548;39.530;-9.118;2022-07-05T18:04:34;13.82;;;5.93;;
59681;SDS011;45548;39.530;-9.118;2022-07-05T18:12:10;13.85;;;6.75;;
59681;SDS011;45548;39.530;-9.118;2022-07-05T18:17:05;17.17;;;7.70;;
59681;SDS011;45548;39.530;-9.118;2022-07-05T18:19:31;19.08;;;6.70;;
59681;SDS011;45548;39.530;-9.118;2022-07-05T18:21:56;14.88;;;5.88;;
59681;SDS011;45548;39.530;-9.118;2022-07-05T18:24:22;16.70;;;6.90;;
59681;SDS011;45548;39.530;-9.118;2022-07-05T18:26:47;15.00;;;6.05;;
59681;SDS011;45548;39.530;-9.118;2022-07-05T18:29:13;21.70;;;7.50;;
59681;SDS011;45548;39.530;-9.118;2022-07-05T18:31:39;18.85;;;6.97;;
59681;SDS011;45548;39.530;-9.118;2022-07-05T18:34:04;16.33;;;6.78;;
59681;SDS011;45548;39.530;-9.118;2022-07-05T18:36:30;14.93;;;6.95;;
59681;SDS011;45548;39.530;-9.118;2022-07-05T18:38:56;16.80;;;7.85;;
59681;SDS011;45548;39.530;-9.118;2022-07-05T18:41:22;16.75;;;8.40;;
59681;SDS011;45548;39.530;-9.118;2022-07-05T18:43:48;17.88;;;8.90;;
59681;SDS011;45548;39.530;-9.118;2022-07-05T18:46:13;25.08;;;12.65;;
59681;SDS011;45548;39.530;-9.118;2022-07-05T18:48:39;18.63;;;10.40;;
59681;SDS011;45548;39.530;-9.118;2022-07-05T18:51:05;17.00;;;9.55;;
59681;SDS011;45548;39.530;-9.118;2022-07-05T18:53:30;17.95;;;8.10;;
59681;SDS011;45548;39.530;-9.118;2022-07-05T18:55:56;12.13;;;7.40;;
59681;SDS011;45548;39.530;-9.118;2022-07-05T19:03:32;16.00;;;7.10;;
59681;SDS011;45548;39.530;-9.118;2022-07-05T19:19:40;12.05;;;5.75;;
59681;SDS011;45548;39.530;-9.118;2022-07-05T19:24:41;16.80;;;7.53;;
59681;SDS011;45548;39.530;-9.118;2022-07-05T19:27:07;15.75;;;6.78;;
59681;SDS011;45548;39.530;-9.118;2022-07-05T19:32:11;13.65;;;6.30;;
59681;SDS011;45548;39.530;-9.118;2022-07-05T19:34:37;14.02;;;6.40;;
59681;SDS011;45548;39.530;-9.118;2022-07-05T19:37:03;17.20;;;6.93;;
59681;SDS011;45548;39.530;-9.118;2022-07-05T19:39:46;14.80;;;6.88;;
59681;SDS011;45548;39.530;-9.118;2022-07-05T19:42:15;15.57;;;7.03;;
59681;SDS011;45548;39.530;-9.118;2022-07-05T19:44:41;14.23;;;5.95;;
59681;SDS011;45548;39.530;-9.118;2022-07-05T19:47:06;17.33;;;7.30;;
59681;SDS011;45548;39.530;-9.118;2022-07-05T19:49:32;13.95;;;6.85;;
59681;SDS011;45548;39.530;-9.118;2022-07-05T19:51:58;16.02;;;7.35;;
59681;SDS011;45548;39.530;-9.118;2022-07-05T19:54:23;12.25;;;7.05;;
59681;SDS011;45548;39.530;-9.118;2022-07-05T19:56:49;16.23;;;7.22;;
59681;SDS011;45548;39.530;-9.118;2022-07-05T19:59:15;13.77;;;7.00;;
59681;SDS011;45548;39.530;-9.118;2022-07-05T20:01:40;15.60;;;7.10;;
59681;SDS011;45548;39.530;-9.118;2022-07-05T20:04:06;15.73;;;7.70;;
59681;SDS011;45548;39.530;-9.118;2022-07-05T20:06:34;16.80;;;7.13;;
59681;SDS011;45548;39.530;-9.118;2022-07-05T20:09:00;15.90;;;8.07;;
59681;SDS011;45548;39.530;-9.118;2022-07-05T20:11:26;11.93;;;6.32;;
59681;SDS011;45548;39.530;-9.118;2022-07-05T20:13:51;16.27;;;7.28;;
59681;SDS011;45548;39.530;-9.118;2022-07-05T20:16:17;14.20;;;7.57;;
59681;SDS011;45548;39.530;-9.118;2022-07-05T20:18:42;11.35;;;6.55;;
59681;SDS011;45548;39.530;-9.118;2022-07-05T20:21:08;18.05;;;8.07;;
59681;SDS011;45548;39.530;-9.118;2022-07-05T20:23:34;12.40;;;7.25;;
59681;SDS011;45548;39.530;-9.118;2022-07-05T20:26:00;16.15;;;8.00;;
59681;SDS011;45548;39.530;-9.118;2022-07-05T20:28:25;18.45;;;9.68;;
59681;SDS011;45548;39.530;-9.118;2022-07-05T20:30:51;15.20;;;8.48;;
59681;SDS011;45548;39.530;-9.118;2022-07-05T20:33:20;18.98;;;10.38;;
59681;SDS011;45548;39.530;-9.118;2022-07-05T20:35:46;17.50;;;9.68;;
59681;SDS011;45548;39.530;-9.118;2022-07-05T20:38:12;17.38;;;8.52;;
59681;SDS011;45548;39.530;-9.118;2022-07-05T20:40:38;11.73;;;7.50;;
59681;SDS011;45548;39.530;-9.118;2022-07-05T20:43:04;15.40;;;8.75;;
59681;SDS011;45548;39.530;-9.118;2022-07-05T20:45:29;17.10;;;7.75;;
59681;SDS011;45548;39.530;-9.118;2022-07-05T20:47:55;17.73;;;8.82;;
59681;SDS011;45548;39.530;-9.118;2022-07-05T20:50:20;15.25;;;8.50;;
59681;SDS011;45548;39.530;-9.118;2022-07-05T20:52:46;14.38;;;8.85;;
59681;SDS011;45548;39.530;-9.118;2022-07-05T20:55:11;20.17;;;9.65;;
59681;SDS011;45548;39.530;-9.118;2022-07-05T20:57:38;16.05;;;8.38;;
59681;SDS011;45548;39.530;-9.118;2022-07-05T21:00:04;18.50;;;9.77;;
59681;SDS011;45548;39.530;-9.118;2022-07-05T21:02:31;20.20;;;9.73;;
59681;SDS011;45548;39.530;-9.118;2022-07-05T21:04:57;14.35;;;7.60;;
59681;SDS011;45548;39.530;-9.118;2022-07-05T21:07:22;16.88;;;9.05;;
59681;SDS011;45548;39.530;-9.118;2022-07-05T21:09:48;16.25;;;9.02;;
59681;SDS011;45548;39.530;-9.118;2022-07-05T21:12:13;18.67;;;9.40;;
59681;SDS011;45548;39.530;-9.118;2022-07-05T21:14:40;14.25;;;8.95;;
59681;SDS011;45548;39.530;-9.118;2022-07-05T21:17:06;18.80;;;10.18;;
59681;SDS011;45548;39.530;-9.118;2022-07-05T21:19:32;17.55;;;10.82;;
59681;SDS011;45548;39.530;-9.118;2022-07-05T21:21:59;20.50;;;11.05;;
59681;SDS011;45548;39.530;-9.118;2022-07-05T21:24:29;20.13;;;11.32;;
59681;SDS011;45548;39.530;-9.118;2022-07-05T21:26:56;19.67;;;11.63;;
59681;SDS011;45548;39.530;-9.118;2022-07-05T21:29:22;14.90;;;9.25;;
59681;SDS011;45548;39.530;-9.118;2022-07-05T21:31:48;17.52;;;10.00;;
59681;SDS011;45548;39.530;-9.118;2022-07-05T21:34:14;14.02;;;8.50;;
59681;SDS011;45548;39.530;-9.118;2022-07-05T21:36:39;17.30;;;10.43;;
59681;SDS011;45548;39.530;-9.118;2022-07-05T21:39:05;13.52;;;9.15;;
59681;SDS011;45548;39.530;-9.118;2022-07-05T21:41:31;17.02;;;11.18;;
59681;SDS011;45548;39.530;-9.118;2022-07-05T21:43:57;19.33;;;11.18;;
59681;SDS011;45548;39.530;-9.118;2022-07-05T21:46:23;19.50;;;11.25;;
59681;SDS011;45548;39.530;-9.118;2022-07-05T21:48:48;13.45;;;9.68;;
59681;SDS011;45548;39.530;-9.118;2022-07-05T21:51:14;12.57;;;9.05;;
59681;SDS011;45548;39.530;-9.118;2022-07-05T21:53:39;16.25;;;10.65;;
59681;SDS011;45548;39.530;-9.118;2022-07-05T21:56:05;16.30;;;11.70;;
59681;SDS011;45548;39.530;-9.118;2022-07-05T21:58:30;19.55;;;11.25;;
59681;SDS011;45548;39.530;-9.118;2022-07-05T22:01:19;16.10;;;9.40;;
59681;SDS011;45548;39.530;-9.118;2022-07-05T22:04:03;20.20;;;11.23;;
59681;SDS011;45548;39.530;-9.118;2022-07-05T22:07:00;15.48;;;9.82;;
59681;SDS011;45548;39.530;-9.118;2022-07-05T22:09:28;14.35;;;10.73;;
59681;SDS011;45548;39.530;-9.118;2022-07-05T22:11:54;15.55;;;10.38;;
59681;SDS011;45548;39.530;-9.118;2022-07-05T22:14:20;15.93;;;11.15;;
59681;SDS011;45548;39.530;-9.118;2022-07-05T22:16:46;17.13;;;9.75;;
59681;SDS011;45548;39.530;-9.118;2022-07-05T22:19:11;13.45;;;9.27;;
59681;SDS011;45548;39.530;-9.118;2022-07-05T22:21:37;12.75;;;8.70;;
59681;SDS011;45548;39.530;-9.118;2022-07-05T22:24:03;15.95;;;10.10;;
59681;SDS011;45548;39.530;-9.118;2022-07-05T22:26:29;15.63;;;10.60;;
59681;SDS011;45548;39.530;-9.118;2022-07-05T22:28:54;18.15;;;10.68;;
59681;SDS011;45548;39.530;-9.118;2022-07-05T22:31:20;17.52;;;10.05;;
59681;SDS011;45548;39.530;-9.118;2022-07-05T22:33:45;16.20;;;9.82;;
59681;SDS011;45548;39.530;-9.118;2022-07-05T22:36:11;15.82;;;10.02;;
59681;SDS011;45548;39.530;-9.118;2022-07-05T22:38:37;16.40;;;10.73;;
59681;SDS011;45548;39.530;-9.118;2022-07-05T22:41:03;21.00;;;11.48;;
59681;SDS011;45548;39.530;-9.118;2022-07-05T22:43:28;15.98;;;12.02;;
59681;SDS011;45548;39.530;-9.118;2022-07-05T22:45:54;17.67;;;11.57;;
59681;SDS011;45548;39.530;-9.118;2022-07-05T22:48:19;14.15;;;11.65;;
59681;SDS011;45548;39.530;-9.118;2022-07-05T22:50:45;14.32;;;10.40;;
59681;SDS011;45548;39.530;-9.118;2022-07-05T22:53:10;14.70;;;11.18;;
59681;SDS011;45548;39.530;-9.118;2022-07-05T22:55:36;19.30;;;13.48;;
59681;SDS011;45548;39.530;-9.118;2022-07-05T22:58:01;18.77;;;11.00;;
59681;SDS011;45548;39.530;-9.118;2022-07-05T23:00:27;19.27;;;13.05;;
